Time;durP1;ratioP1;P1;durP2;ratioP2;P2;SDS_P1;SDS_P2;PMS_P1;PMS_P2;Temp;Humidity;BMP_temperature;BMP_pressure;BME280_temperature;BME280_humidity;BME280_pressure;Samples;Min_cycle;Max_cycle;Signal;HPM_P1;HPM_P2
2023/06/14 00:00:49;;;;;;;;;;;;;;;22.65;32.40;101915.72;5066600;28;20003;-79
2023/06/14 00:03:17;;;;;;;;;;;;;;;22.60;33.15;101917.41;5071396;28;20015;-79
2023/06/14 00:05:43;;;;;;;;;;;;;;;22.55;33.06;101914.78;5066867;28;20040;-79
2023/06/14 00:08:08;;;;;;;;;;;;;;;22.55;32.88;101912.06;5074977;28;20387;-79
2023/06/14 00:10:35;;;;;;;;;;;;;;;22.52;33.11;101904.47;5058328;28;19938;-79
2023/06/14 00:13:04;;;;;;;;;;;;;;;22.53;32.71;101905.28;5065726;28;20415;-79
2023/06/14 00:15:30;;;;;;;;;;;;;;;22.55;32.71;101898.41;5060083;28;19928;-79
2023/06/14 00:17:56;;;;;;;;;;;;;;;22.58;32.57;101897.78;5072582;28;19916;-78
2023/06/14 00:20:22;;;;;;;;;;;;;;;22.61;32.73;101899.91;5067700;28;19950;-79
2023/06/14 00:22:47;;;;;;;;;;;;;;;22.60;32.49;101901.03;5100971;27;19916;-79
2023/06/14 00:25:13;;;;;;;;;;;;;;;22.57;33.31;101901.63;5066452;28;19920;-79
2023/06/14 00:27:38;;;;;;;;;;;;;;;22.55;33.19;101898.41;5098321;27;20331;-79
2023/06/14 00:30:04;;;;;;;;;;;;;;;22.54;32.45;101896.78;5070635;28;20521;-79
2023/06/14 00:32:29;;;;;;;;;;;;;;;22.55;33.26;101895.66;5067622;28;20026;-79
2023/06/14 00:34:54;;;;;;;;;;;;;;;22.57;33.04;101895.34;5065760;28;19954;-79
2023/06/14 00:37:20;;;;;;;;;;;;;;;22.61;32.69;101894.44;5065367;28;20293;-79
2023/06/14 00:39:45;;;;;;;;;;;;;;;22.63;33.21;101899.63;5065481;28;20074;-80
2023/06/14 00:42:11;;;;;;;;;;;;;;;22.63;33.11;101893.38;5067648;28;21547;-79
2023/06/14 00:44:36;;;;;;;;;;;;;;;22.63;33.25;101896.09;5061256;28;19928;-79
2023/06/14 00:47:01;;;;;;;;;;;;;;;22.62;33.46;101895.25;5064910;28;20394;-79
2023/06/14 00:49:29;;;;;;;;;;;;;;;22.61;33.29;101905.38;5100486;27;20335;-79
2023/06/14 00:51:55;;;;;;;;;;;;;;;22.58;33.83;101899.72;5069198;28;19916;-79
2023/06/14 00:54:20;;;;;;;;;;;;;;;22.56;33.62;101905.47;5065536;28;19916;-79
2023/06/14 00:56:45;;;;;;;;;;;;;;;22.55;33.38;101900.31;5070439;28;20291;-79
2023/06/14 00:59:11;;;;;;;;;;;;;;;22.56;34.11;101902.75;5067756;28;19920;-79
2023/06/14 01:01:36;;;;;;;;;;;;;;;22.54;33.68;101902.25;5064087;28;19974;-79
2023/06/14 01:04:03;;;;;;;;;;;;;;;22.54;33.69;101904.97;5065437;28;20014;-79
2023/06/14 01:06:33;;;;;;;;;;;;;;;22.58;33.11;101907.91;5067071;28;19932;-79
2023/06/14 01:08:59;;;;;;;;;;;;;;;22.60;33.21;101902.94;5070610;28;19995;-79
2023/06/14 01:11:28;;;;;;;;;;;;;;;22.61;33.13;101905.38;5061473;28;19960;-79
2023/06/14 01:13:56;;;;;;;;;;;;;;;22.66;33.79;101903.69;5065205;28;19999;-80
2023/06/14 01:16:21;;;;;;;;;;;;;;;22.67;33.63;101899.84;5058733;28;19924;-80
2023/06/14 01:18:48;;;;;;;;;;;;;;;22.66;34.17;101898.22;5100857;27;19931;-79
2023/06/14 01:21:23;;;;;;;;;;;;;;;22.62;34.18;101895.25;5066047;28;19964;-79
2023/06/14 01:23:52;;;;;;;;;;;;;;;22.57;33.97;101903.56;5064540;28;20012;-79
2023/06/14 01:26:19;;;;;;;;;;;;;;;22.55;34.02;101903.84;5069345;28;19970;-79
2023/06/14 01:28:48;;;;;;;;;;;;;;;22.55;34.11;101894.84;5067812;28;19916;-80
2023/06/14 01:31:41;;;;;;;;;;;;;;;22.54;34.40;101891.31;5065920;28;19920;-79
2023/06/14 01:34:20;;;;;;;;;;;;;;;22.52;35.10;101895.47;5073684;28;19924;-79
2023/06/14 01:36:47;;;;;;;;;;;;;;;22.41;34.65;101892.09;5069530;28;19920;-79
2023/06/14 01:39:14;;;;;;;;;;;;;;;22.39;34.52;101891.59;5063153;28;20834;-79
2023/06/14 01:41:40;;;;;;;;;;;;;;;22.38;34.75;101887.22;5059823;28;19928;-79
2023/06/14 01:44:06;;;;;;;;;;;;;;;22.42;34.82;101876.50;5069154;28;19916;-79
2023/06/14 01:46:31;;;;;;;;;;;;;;;22.45;34.90;101876.75;5061472;28;19924;-80
2023/06/14 01:48:57;;;;;;;;;;;;;;;22.43;34.30;101889.88;5067386;28;19920;-79
2023/06/14 01:51:22;;;;;;;;;;;;;;;22.41;33.82;101896.75;5062735;28;20003;-78
2023/06/14 01:53:48;;;;;;;;;;;;;;;22.43;34.05;101900.78;5066754;28;20009;-81
2023/06/14 01:56:13;;;;;;;;;;;;;;;22.44;33.61;101896.97;5064443;28;19921;-79
2023/06/14 01:58:39;;;;;;;;;;;;;;;22.43;33.75;101906.25;5070561;28;19923;-80
2023/06/14 02:01:05;;;;;;;;;;;;;;;22.43;34.02;101900.78;5081535;28;19924;-79
2023/06/14 02:03:30;;;;;;;;;;;;;;;22.43;34.21;101899.97;5086783;28;19925;-79
2023/06/14 02:05:56;;;;;;;;;;;;;;;22.41;34.18;101900.28;5084063;28;19984;-80
2023/06/14 02:08:22;;;;;;;;;;;;;;;22.38;34.14;101900.88;5065599;28;19920;-79
2023/06/14 02:10:47;;;;;;;;;;;;;;;22.31;35.03;101895.00;5082443;28;19917;-79
2023/06/14 02:13:12;;;;;;;;;;;;;;;22.29;34.05;101903.50;5079874;28;20035;-79
2023/06/14 02:15:38;;;;;;;;;;;;;;;22.28;34.67;101898.34;5081834;28;20550;-79
2023/06/14 02:18:03;;;;;;;;;;;;;;;22.25;34.57;101899.72;5081903;28;20006;-79
2023/06/14 02:20:29;;;;;;;;;;;;;;;22.26;34.34;101900.53;5079813;28;21246;-79
2023/06/14 02:22:54;;;;;;;;;;;;;;;22.27;34.35;101891.25;5090062;28;19932;-80
2023/06/14 02:25:20;;;;;;;;;;;;;;;22.27;34.47;101899.47;5079157;28;19923;-79
2023/06/14 02:27:45;;;;;;;;;;;;;;;22.24;34.58;101902.75;5088967;28;20003;-80
2023/06/14 02:30:11;;;;;;;;;;;;;;;22.19;34.82;101897.38;5085713;28;20006;-79
2023/06/14 02:32:36;;;;;;;;;;;;;;;22.13;34.86;101898.59;5082506;28;19920;-79
2023/06/14 02:35:02;;;;;;;;;;;;;;;22.07;34.82;101903.31;5089812;28;19958;-79
2023/06/14 02:37:27;;;;;;;;;;;;;;;22.02;34.80;101895.97;5082530;28;19916;-79
2023/06/14 02:39:52;;;;;;;;;;;;;;;21.98;35.05;101892.22;5086928;28;20299;-79
2023/06/14 02:42:18;;;;;;;;;;;;;;;21.94;34.95;101891.22;5082888;28;20311;-79
2023/06/14 02:44:44;;;;;;;;;;;;;;;21.92;34.97;101901.63;5089216;28;20352;-80
2023/06/14 02:47:09;;;;;;;;;;;;;;;21.87;35.26;101898.94;5082975;28;19930;-79
2023/06/14 02:49:34;;;;;;;;;;;;;;;21.82;34.92;101901.75;5083838;28;19935;-79
2023/06/14 02:51:59;;;;;;;;;;;;;;;21.78;35.12;101903.47;5094554;28;19919;-79
2023/06/14 02:54:25;;;;;;;;;;;;;;;21.73;35.28;101903.53;5082589;28;20383;-79
2023/06/14 02:56:50;;;;;;;;;;;;;;;21.69;35.19;101906.03;5086081;28;20011;-79
2023/06/14 02:59:16;;;;;;;;;;;;;;;21.63;35.43;101914.59;5087126;28;19948;-79
2023/06/14 03:01:42;;;;;;;;;;;;;;;21.60;35.28;101910.53;5085417;28;19927;-79
2023/06/14 03:04:08;;;;;;;;;;;;;;;21.57;35.52;101910.31;5091633;28;20002;-79
2023/06/14 03:06:33;;;;;;;;;;;;;;;21.52;35.49;101907.63;5084530;28;20529;-79
2023/06/14 03:09:00;;;;;;;;;;;;;;;21.48;35.43;101907.41;5087880;28;20384;-80
2023/06/14 03:11:26;;;;;;;;;;;;;;;21.43;35.92;101912.94;5092605;28;20456;-79
2023/06/14 03:13:52;;;;;;;;;;;;;;;21.38;35.33;101913.03;5090874;28;19920;-79
2023/06/14 03:16:20;;;;;;;;;;;;;;;21.35;35.76;101908.13;5083868;28;20375;-79
2023/06/14 03:18:45;;;;;;;;;;;;;;;21.30;35.66;101911.75;5088694;28;19924;-79
2023/06/14 03:21:11;;;;;;;;;;;;;;;21.30;35.56;101903.56;5082770;28;20024;-79
2023/06/14 03:23:36;;;;;;;;;;;;;;;21.28;35.92;101908.50;5090109;28;20006;-80
2023/06/14 03:26:01;;;;;;;;;;;;;;;21.28;35.65;101902.25;5082214;28;20280;-79
2023/06/14 03:28:27;;;;;;;;;;;;;;;21.28;35.72;101915.88;5086137;28;19923;-79
2023/06/14 03:30:52;;;;;;;;;;;;;;;21.29;36.22;101909.31;5085385;28;19950;-79
2023/06/14 03:33:18;;;;;;;;;;;;;;;21.29;36.10;101912.03;5087690;28;20443;-80
2023/06/14 03:35:43;;;;;;;;;;;;;;;21.31;35.89;101912.56;5089730;28;19916;-79
2023/06/14 03:38:08;;;;;;;;;;;;;;;21.34;36.08;101914.69;5092944;28;19916;-79
2023/06/14 03:40:34;;;;;;;;;;;;;;;21.38;36.23;101923.94;5091702;28;20407;-79
2023/06/14 03:42:59;;;;;;;;;;;;;;;21.40;36.11;101914.34;5084601;28;19924;-79
2023/06/14 03:45:25;;;;;;;;;;;;;;;21.41;36.57;101920.63;5087058;28;20383;-80
2023/06/14 03:47:50;;;;;;;;;;;;;;;21.44;36.43;101916.50;5093006;28;19923;-79
2023/06/14 03:50:16;;;;;;;;;;;;;;;21.48;36.19;101928.44;5086263;28;19917;-79
2023/06/14 03:52:43;;;;;;;;;;;;;;;21.49;36.01;101928.13;5069957;28;20513;-79
2023/06/14 03:55:09;;;;;;;;;;;;;;;21.53;36.16;101939.25;5085986;28;19916;-79
2023/06/14 03:57:34;;;;;;;;;;;;;;;21.56;36.08;101941.41;5086186;28;20521;-78
2023/06/14 04:00:00;;;;;;;;;;;;;;;21.62;36.11;101943.78;5084897;28;20380;-79
2023/06/14 04:02:28;;;;;;;;;;;;;;;21.67;36.04;101934.72;5088306;28;20002;-79
2023/06/14 04:04:54;;;;;;;;;;;;;;;21.68;35.83;101939.06;5094483;28;19920;-79
2023/06/14 04:07:19;;;;;;;;;;;;;;;21.73;35.73;101940.91;5087282;28;20418;-79
2023/06/14 04:09:45;;;;;;;;;;;;;;;21.75;35.98;101939.53;5087498;28;19999;-79
2023/06/14 04:12:11;;;;;;;;;;;;;;;21.81;35.81;101943.78;5086372;28;19925;-79
2023/06/14 04:14:36;;;;;;;;;;;;;;;21.88;36.07;101940.69;5089812;28;19923;-80
2023/06/14 04:17:02;;;;;;;;;;;;;;;21.98;35.53;101932.34;5087332;28;19916;-79
2023/06/14 04:19:27;;;;;;;;;;;;;;;22.11;35.47;101939.84;5086381;28;19969;-79
2023/06/14 04:21:52;;;;;;;;;;;;;;;22.19;35.15;101936.41;5086005;28;19920;-79
2023/06/14 04:24:18;;;;;;;;;;;;;;;22.24;35.57;101930.88;5088168;28;19928;-79
2023/06/14 04:26:47;;;;;;;;;;;;;;;22.25;35.12;101932.47;5086938;28;19920;-79
2023/06/14 04:29:16;;;;;;;;;;;;;;;22.28;35.79;101937.38;5089448;28;19916;-80
2023/06/14 04:31:45;;;;;;;;;;;;;;;22.30;36.28;101932.44;5089315;28;19916;-79
2023/06/14 04:34:15;;;;;;;;;;;;;;;22.36;35.04;101933.13;5092897;28;19916;-79
2023/06/14 04:36:49;;;;;;;;;;;;;;;22.43;35.59;101940.94;5090040;28;19920;-80
2023/06/14 04:39:17;;;;;;;;;;;;;;;22.49;35.51;101935.09;5091293;28;20298;-80
2023/06/14 04:41:43;;;;;;;;;;;;;;;22.52;35.85;101941.88;5089246;28;20400;-79
2023/06/14 04:44:09;;;;;;;;;;;;;;;22.54;35.27;101935.00;5088467;28;19962;-79
2023/06/14 04:46:45;;;;;;;;;;;;;;;22.60;35.50;101942.00;5089057;28;19924;-80
2023/06/14 04:49:17;;;;;;;;;;;;;;;22.66;35.18;101941.94;5080919;28;19916;-79
2023/06/14 04:51:43;;;;;;;;;;;;;;;22.74;34.82;101939.28;5091225;28;20002;-80
2023/06/14 04:54:15;;;;;;;;;;;;;;;22.81;34.83;101938.91;5068884;28;19916;-79
2023/06/14 04:56:42;;;;;;;;;;;;;;;22.88;35.12;101940.16;5085573;28;19924;-79
2023/06/14 04:59:07;;;;;;;;;;;;;;;22.92;35.08;101937.63;5081551;28;19923;-79
2023/06/14 05:01:33;;;;;;;;;;;;;;;23.00;34.65;101944.34;5086445;28;19924;-79
2023/06/14 05:03:59;;;;;;;;;;;;;;;23.07;34.28;101934.59;5090680;28;19924;-80
2023/06/14 05:06:24;;;;;;;;;;;;;;;23.13;35.05;101938.84;5089858;28;19954;-80
2023/06/14 05:08:50;;;;;;;;;;;;;;;23.18;34.80;101937.97;5082804;28;19951;-79
2023/06/14 05:11:16;;;;;;;;;;;;;;;23.24;34.51;101933.19;5086517;28;19924;-79
2023/06/14 05:13:42;;;;;;;;;;;;;;;23.31;34.21;101928.09;5085474;28;19917;-79
2023/06/14 05:16:07;;;;;;;;;;;;;;;23.35;34.21;101929.94;5067238;28;19924;-79
2023/06/14 05:18:35;;;;;;;;;;;;;;;23.42;34.50;101933.06;5084380;28;19928;-79
2023/06/14 05:21:00;;;;;;;;;;;;;;;23.49;34.43;101935.38;5083161;28;19935;-79
2023/06/14 05:23:26;;;;;;;;;;;;;;;23.54;34.90;101939.94;5083441;28;20316;-79
2023/06/14 05:25:51;;;;;;;;;;;;;;;23.59;34.81;101931.66;5068976;28;20356;-80
2023/06/14 05:28:16;;;;;;;;;;;;;;;23.66;34.53;101935.59;5065801;28;20337;-79
2023/06/14 05:30:42;;;;;;;;;;;;;;;23.73;34.03;101938.72;5087773;28;20407;-79
2023/06/14 05:33:07;;;;;;;;;;;;;;;23.81;34.40;101937.97;5087466;28;19919;-80
2023/06/14 05:35:32;;;;;;;;;;;;;;;23.89;34.17;101941.13;5090185;28;19916;-80
2023/06/14 05:37:58;;;;;;;;;;;;;;;23.94;35.31;101939.06;5090640;28;19932;-80
2023/06/14 05:40:23;;;;;;;;;;;;;;;24.03;34.48;101941.84;5090551;28;19920;-79
2023/06/14 05:42:48;;;;;;;;;;;;;;;24.13;34.28;101946.28;5089008;28;19916;-80
2023/06/14 05:45:15;;;;;;;;;;;;;;;24.22;34.42;101950.69;5087710;28;19916;-80
2023/06/14 05:47:41;;;;;;;;;;;;;;;24.27;34.34;101947.84;5071565;28;20295;-79
2023/06/14 05:50:07;;;;;;;;;;;;;;;24.32;34.37;101952.41;5088800;28;19927;-79
2023/06/14 05:52:32;;;;;;;;;;;;;;;24.34;34.03;101953.72;5085639;28;20012;-79
2023/06/14 05:54:57;;;;;;;;;;;;;;;24.41;34.13;101950.53;5087306;28;19942;-79
2023/06/14 05:57:23;;;;;;;;;;;;;;;24.49;33.77;101951.72;5092865;28;19916;-80
2023/06/14 05:59:48;;;;;;;;;;;;;;;24.58;33.78;101964.34;5086894;28;19922;-80
2023/06/14 06:02:13;;;;;;;;;;;;;;;24.67;33.68;101972.63;5086185;28;19916;-80
2023/06/14 06:04:39;;;;;;;;;;;;;;;24.73;33.58;101965.88;5089042;28;20066;-80
2023/06/14 06:07:05;;;;;;;;;;;;;;;24.74;33.45;101967.50;5089535;28;19912;-80
2023/06/14 06:09:30;;;;;;;;;;;;;;;24.79;34.08;101970.13;5087737;28;19924;-80
2023/06/14 06:11:55;;;;;;;;;;;;;;;24.83;33.36;101964.81;5073147;28;19912;-80
2023/06/14 06:14:21;;;;;;;;;;;;;;;24.88;33.79;101968.22;5085382;28;19923;-79
2023/06/14 06:16:46;;;;;;;;;;;;;;;24.93;33.72;101976.31;5090286;28;19916;-80
2023/06/14 06:19:11;;;;;;;;;;;;;;;24.98;33.39;101972.63;5082342;28;19931;-80
2023/06/14 06:21:37;;;;;;;;;;;;;;;25.00;33.65;101973.16;5073102;28;19928;-80
2023/06/14 06:24:05;;;;;;;;;;;;;;;25.09;33.84;101971.25;5092085;28;20704;-80
2023/06/14 06:26:30;;;;;;;;;;;;;;;25.22;33.48;101966.78;5093799;28;19924;-81
2023/06/14 06:28:57;;;;;;;;;;;;;;;25.35;33.55;101971.34;5085756;28;19923;-80
2023/06/14 06:31:22;;;;;;;;;;;;;;;25.41;33.25;101972.81;5087274;28;19920;-80
2023/06/14 06:33:47;;;;;;;;;;;;;;;25.46;33.01;101974.59;5090004;28;20584;-79
2023/06/14 06:36:13;;;;;;;;;;;;;;;25.53;33.26;101974.94;5090615;28;20319;-80
2023/06/14 06:38:38;;;;;;;;;;;;;;;25.58;33.16;101967.38;5091497;28;20399;-80
2023/06/14 06:41:03;;;;;;;;;;;;;;;25.66;32.99;101971.22;5077906;28;20364;-80
2023/06/14 06:43:28;;;;;;;;;;;;;;;25.72;32.94;101975.50;5092674;28;20410;-80
2023/06/14 06:45:54;;;;;;;;;;;;;;;25.74;32.99;101961.44;5093262;28;19920;-80
2023/06/14 06:48:19;;;;;;;;;;;;;;;25.73;33.06;101968.06;5083200;28;19924;-79
2023/06/14 06:50:45;;;;;;;;;;;;;;;25.76;32.66;101967.41;5091251;28;20004;-80
2023/06/14 06:53:10;;;;;;;;;;;;;;;25.80;32.73;101962.91;5086153;28;19916;-81
2023/06/14 06:55:35;;;;;;;;;;;;;;;25.86;32.58;101956.13;5091512;28;19916;-80
2023/06/14 06:58:01;;;;;;;;;;;;;;;25.90;32.37;101960.66;5091333;28;19916;-80
2023/06/14 07:00:26;;;;;;;;;;;;;;;25.95;32.43;101962.41;5088040;28;19920;-80
2023/06/14 07:02:52;;;;;;;;;;;;;;;25.97;32.67;101962.91;5085704;28;19920;-80
2023/06/14 07:05:17;;;;;;;;;;;;;;;25.99;32.95;101957.88;5089246;28;20368;-79
2023/06/14 07:07:42;;;;;;;;;;;;;;;26.00;32.38;101965.00;5092593;28;20383;-80
2023/06/14 07:10:08;;;;;;;;;;;;;;;26.04;32.57;101966.00;5088008;28;19954;-80
2023/06/14 07:12:38;;;;;;;;;;;;;;;26.10;32.32;101970.19;5084617;28;19916;-80
2023/06/14 07:15:04;;;;;;;;;;;;;;;26.15;32.69;101978.25;5084031;28;19916;-79
2023/06/14 07:17:29;;;;;;;;;;;;;;;26.19;32.78;101978.41;5090915;28;20564;-80
2023/06/14 07:19:55;;;;;;;;;;;;;;;26.20;32.64;101980.00;5087733;28;19949;-80
2023/06/14 07:22:20;;;;;;;;;;;;;;;26.24;32.76;101983.75;5087732;28;19986;-79
2023/06/14 07:24:46;;;;;;;;;;;;;;;26.26;32.68;101995.22;5087546;28;20284;-80
2023/06/14 07:27:13;;;;;;;;;;;;;;;26.30;32.46;101989.88;5083641;28;20288;-80
2023/06/14 07:29:38;;;;;;;;;;;;;;;26.36;32.48;101983.91;5090131;28;19966;-80
2023/06/14 07:32:04;;;;;;;;;;;;;;;26.42;32.57;101987.31;5089703;28;19951;-80
2023/06/14 07:34:29;;;;;;;;;;;;;;;26.44;32.69;101985.06;5087976;28;20522;-80
2023/06/14 07:36:54;;;;;;;;;;;;;;;26.45;32.51;101992.97;5089486;28;19931;-80
2023/06/14 07:39:19;;;;;;;;;;;;;;;26.47;32.40;101989.91;5086529;28;20371;-80
2023/06/14 07:41:45;;;;;;;;;;;;;;;26.46;32.33;101988.28;5085273;28;19977;-80
2023/06/14 07:44:10;;;;;;;;;;;;;;;26.44;32.28;101988.59;5088600;28;19916;-79
2023/06/14 07:46:35;;;;;;;;;;;;;;;26.48;32.34;101994.25;5089246;28;20426;-80
2023/06/14 07:49:01;;;;;;;;;;;;;;;26.54;32.23;101990.19;5084761;28;19920;-80
2023/06/14 07:51:26;;;;;;;;;;;;;;;26.59;32.06;101994.72;5087591;28;20599;-80
2023/06/14 07:53:51;;;;;;;;;;;;;;;26.62;32.46;101997.63;5085130;28;19932;-80
2023/06/14 07:56:17;;;;;;;;;;;;;;;26.62;31.84;101981.13;5087643;28;19915;-80
2023/06/14 07:58:42;;;;;;;;;;;;;;;26.64;31.71;101986.31;5089320;28;19932;-80
2023/06/14 08:01:08;;;;;;;;;;;;;;;26.66;31.75;101970.28;5092148;28;19963;-80
2023/06/14 08:03:34;;;;;;;;;;;;;;;26.72;31.74;101977.22;5074746;28;20558;-79
2023/06/14 08:06:00;;;;;;;;;;;;;;;26.79;31.78;101978.34;5087692;28;19927;-79
2023/06/14 08:08:25;;;;;;;;;;;;;;;26.89;31.60;101979.09;5085784;28;20378;-80
2023/06/14 08:10:51;;;;;;;;;;;;;;;26.98;31.37;101977.16;5086237;28;19963;-80
2023/06/14 08:13:16;;;;;;;;;;;;;;;27.08;31.33;101983.09;5083875;28;19922;-80
2023/06/14 08:15:41;;;;;;;;;;;;;;;27.10;31.45;101980.81;5084138;28;19916;-80
2023/06/14 08:18:06;;;;;;;;;;;;;;;27.13;31.30;101979.38;5082817;28;19966;-80
2023/06/14 08:20:34;;;;;;;;;;;;;;;27.18;31.24;101975.63;5085032;28;19928;-80
2023/06/14 08:23:00;;;;;;;;;;;;;;;27.24;31.15;101980.59;5084590;28;19969;-80
2023/06/14 08:25:25;;;;;;;;;;;;;;;27.17;31.16;101985.84;5085524;28;20010;-80
2023/06/14 08:27:51;;;;;;;;;;;;;;;27.18;31.27;101986.63;5084313;28;19923;-79
2023/06/14 08:30:17;;;;;;;;;;;;;;;27.23;31.06;101986.44;5090361;28;19916;-80
2023/06/14 08:32:43;;;;;;;;;;;;;;;27.23;30.95;101979.00;5082681;28;19963;-80
2023/06/14 08:35:08;;;;;;;;;;;;;;;27.16;30.97;101975.97;5081358;28;20016;-80
2023/06/14 08:37:37;;;;;;;;;;;;;;;27.18;31.38;101978.38;5077194;28;20345;-80
2023/06/14 08:40:05;;;;;;;;;;;;;;;27.24;31.26;101977.03;5075232;28;20022;-80
2023/06/14 08:42:31;;;;;;;;;;;;;;;27.34;31.04;101973.94;5063914;28;20015;-80
2023/06/14 08:44:57;;;;;;;;;;;;;;;27.46;31.07;101967.69;5080115;28;19939;-80
2023/06/14 08:47:25;;;;;;;;;;;;;;;27.53;30.72;101966.03;5085081;28;19920;-80
2023/06/14 08:49:52;;;;;;;;;;;;;;;27.67;30.71;101968.56;5080029;28;20002;-79
2023/06/14 08:52:19;;;;;;;;;;;;;;;27.76;30.50;101968.50;5076150;28;19919;-80
2023/06/14 08:54:48;;;;;;;;;;;;;;;27.85;30.20;101963.75;5086142;28;20132;-79
2023/06/14 08:57:15;;;;;;;;;;;;;;;27.96;30.11;101967.69;5083852;28;19916;-79
2023/06/14 08:59:45;;;;;;;;;;;;;;;28.05;30.13;101968.44;5078863;28;19999;-80
2023/06/14 09:02:13;;;;;;;;;;;;;;;28.11;29.91;101969.03;5077598;28;19921;-80
2023/06/14 09:04:39;;;;;;;;;;;;;;;28.18;29.75;101969.28;5065417;28;19916;-80
2023/06/14 09:07:06;;;;;;;;;;;;;;;28.23;29.63;101966.34;5077667;28;20015;-80
2023/06/14 09:09:32;;;;;;;;;;;;;;;28.28;29.58;101969.72;5078878;28;19947;-80
2023/06/14 09:11:57;;;;;;;;;;;;;;;28.32;29.52;101967.06;5066532;28;20398;-80
2023/06/14 09:14:26;;;;;;;;;;;;;;;28.39;29.34;101972.06;5080423;28;20894;-80
2023/06/14 09:16:54;;;;;;;;;;;;;;;28.51;29.54;101972.06;5079172;28;19927;-80
2023/06/14 09:19:26;;;;;;;;;;;;;;;28.62;29.36;101966.94;5080469;28;19980;-80
2023/06/14 09:21:52;;;;;;;;;;;;;;;28.67;29.26;101970.28;5077551;28;20214;-80
2023/06/14 09:24:18;;;;;;;;;;;;;;;28.74;29.12;101973.28;5077457;28;20358;-80
2023/06/14 09:26:43;;;;;;;;;;;;;;;28.81;28.78;101970.75;5079373;28;20339;-80
2023/06/14 09:29:09;;;;;;;;;;;;;;;28.87;28.80;101966.66;5084567;28;19939;-80
2023/06/14 09:31:35;;;;;;;;;;;;;;;28.95;28.77;101969.66;5081662;28;19916;-82
2023/06/14 09:34:02;;;;;;;;;;;;;;;29.02;28.48;101961.63;5080140;28;19974;-80
2023/06/14 09:36:27;;;;;;;;;;;;;;;29.08;28.60;101957.47;5085510;28;19924;-80
2023/06/14 09:38:53;;;;;;;;;;;;;;;29.15;28.39;101958.53;5062071;28;19919;-80
2023/06/14 09:41:18;;;;;;;;;;;;;;;29.25;28.17;101960.00;5082841;28;19927;-80
2023/06/14 09:43:45;;;;;;;;;;;;;;;29.39;27.74;101951.38;5084292;28;20040;-80
2023/06/14 09:46:10;;;;;;;;;;;;;;;29.50;27.80;101957.25;5086850;28;19956;-80
2023/06/14 09:48:36;;;;;;;;;;;;;;;29.65;27.68;101948.25;5086921;28;19951;-80
2023/06/14 09:51:01;;;;;;;;;;;;;;;29.80;27.61;101950.25;5083849;28;20000;-80
2023/06/14 09:53:28;;;;;;;;;;;;;;;29.98;27.45;101961.84;5080740;28;20011;-81
2023/06/14 09:55:54;;;;;;;;;;;;;;;30.15;27.23;101944.97;5086582;28;19924;-80
2023/06/14 09:58:23;;;;;;;;;;;;;;;30.39;26.75;101949.59;5092013;28;19911;-80
2023/06/14 10:00:50;;;;;;;;;;;;;;;30.65;26.68;101940.81;5084611;28;19924;-80
2023/06/14 10:03:20;;;;;;;;;;;;;;;30.81;26.51;101938.84;5088783;28;19920;-81
2023/06/14 10:05:46;;;;;;;;;;;;;;;30.95;26.45;101932.88;5081772;28;20039;-80
2023/06/14 10:08:17;;;;;;;;;;;;;;;31.15;26.24;101933.75;5083214;28;20007;-82
2023/06/14 10:10:43;;;;;;;;;;;;;;;31.32;25.35;101925.06;5089756;28;19924;-80
2023/06/14 10:13:09;;;;;;;;;;;;;;;31.43;25.58;101919.78;5076091;28;19927;-80
2023/06/14 10:15:57;;;;;;;;;;;;;;;31.39;26.03;101918.88;5088757;28;20010;-80
2023/06/14 10:18:25;;;;;;;;;;;;;;;31.52;26.09;101923.94;5082702;28;19924;-80
2023/06/14 10:20:51;;;;;;;;;;;;;;;31.65;25.64;101926.56;5088526;28;19920;-80
2023/06/14 10:23:18;;;;;;;;;;;;;;;31.67;24.84;101913.97;5086739;28;19916;-80
2023/06/14 10:25:44;;;;;;;;;;;;;;;31.61;24.91;101907.13;5091091;28;20367;-80
2023/06/14 10:28:12;;;;;;;;;;;;;;;31.56;25.11;101905.41;5088369;28;19916;-81
2023/06/14 10:30:38;;;;;;;;;;;;;;;31.61;24.98;101904.34;5085536;28;19915;-81
2023/06/14 10:33:07;;;;;;;;;;;;;;;31.73;25.28;101900.63;5088100;28;20368;-81
2023/06/14 10:35:32;;;;;;;;;;;;;;;31.99;25.02;101891.66;5083652;28;19928;-81
2023/06/14 10:38:11;;;;;;;;;;;;;;;32.27;23.63;101892.22;5087461;28;19923;-81
2023/06/14 10:40:38;;;;;;;;;;;;;;;32.54;24.08;101887.53;5085893;28;19966;-80
2023/06/14 10:43:20;;;;;;;;;;;;;;;32.76;24.08;101886.72;5090775;28;19938;-81
2023/06/14 10:46:12;;;;;;;;;;;;;;;33.05;23.80;101889.97;5086573;28;19926;-81
2023/06/14 10:48:41;;;;;;;;;;;;;;;33.31;24.06;101892.69;5080287;28;19942;-82
2023/06/14 10:51:16;;;;;;;;;;;;;;;33.56;23.66;101881.13;5087300;28;19969;-81
2023/06/14 10:53:42;;;;;;;;;;;;;;;33.81;23.16;101881.44;5086808;28;19924;-81
2023/06/14 10:56:08;;;;;;;;;;;;;;;33.98;23.08;101875.31;5086191;28;20320;-82
2023/06/14 10:58:33;;;;;;;;;;;;;;;34.20;22.89;101874.31;5084463;28;19946;-82
2023/06/14 11:00:58;;;;;;;;;;;;;;;34.46;22.94;101865.03;5088527;28;20581;-83
2023/06/14 11:03:44;;;;;;;;;;;;;;;34.64;22.74;101865.19;5087025;28;19924;-82
2023/06/14 11:06:13;;;;;;;;;;;;;;;34.86;22.53;101860.63;5070523;28;20570;-83
2023/06/14 11:08:44;;;;;;;;;;;;;;;34.98;22.50;101857.47;5086926;28;19965;-82
2023/06/14 11:11:10;;;;;;;;;;;;;;;35.06;22.44;101858.34;5071292;28;19916;-82
2023/06/14 11:13:39;;;;;;;;;;;;;;;35.16;21.62;101852.00;5092317;28;19985;-82
2023/06/14 11:16:15;;;;;;;;;;;;;;;35.15;21.88;101842.06;5091920;28;19916;-82
2023/06/14 11:18:40;;;;;;;;;;;;;;;34.97;21.75;101844.75;5091526;28;19916;-83
2023/06/14 11:21:06;;;;;;;;;;;;;;;34.81;22.49;101844.22;5087615;28;20020;-84
2023/06/14 11:23:31;;;;;;;;;;;;;;;34.80;21.55;101839.84;5082307;28;19924;-83
2023/06/14 11:25:56;;;;;;;;;;;;;;;34.96;21.65;101831.22;5088689;28;20015;-83
2023/06/14 11:28:23;;;;;;;;;;;;;;;35.16;21.82;101829.72;5089341;28;20563;-83
2023/06/14 11:30:59;;;;;;;;;;;;;;;35.41;21.89;101825.09;5089053;28;19945;-82
2023/06/14 11:33:24;;;;;;;;;;;;;;;35.55;21.17;101823.53;5086669;28;19916;-83
2023/06/14 11:35:50;;;;;;;;;;;;;;;35.48;21.22;101823.53;5090475;28;19977;-82
2023/06/14 11:38:16;;;;;;;;;;;;;;;35.27;20.82;101827.00;5085428;28;19927;-82
2023/06/14 11:40:41;;;;;;;;;;;;;;;35.15;21.09;101828.13;5090009;28;19924;-83
2023/06/14 11:43:06;;;;;;;;;;;;;;;35.09;20.22;101830.50;5085583;28;19916;-83
2023/06/14 11:45:32;;;;;;;;;;;;;;;35.06;20.84;101825.72;5083144;28;19931;-83
2023/06/14 11:47:58;;;;;;;;;;;;;;;35.01;21.10;101816.91;5083237;28;19920;-83
2023/06/14 11:50:24;;;;;;;;;;;;;;;35.01;21.39;101819.69;5081782;28;19917;-83
2023/06/14 11:52:57;;;;;;;;;;;;;;;35.02;21.24;101818.53;5084204;28;19924;-83
2023/06/14 11:55:23;;;;;;;;;;;;;;;34.87;20.24;101822.44;5082200;28;20709;-82
2023/06/14 11:57:48;;;;;;;;;;;;;;;34.80;21.63;101828.69;5083411;28;19917;-82
2023/06/14 12:00:15;;;;;;;;;;;;;;;34.67;21.32;101825.47;5086247;28;20355;-82
2023/06/14 12:02:41;;;;;;;;;;;;;;;34.57;21.04;101819.81;5082754;28;19920;-81
2023/06/14 12:05:09;;;;;;;;;;;;;;;34.47;21.11;101821.31;5082751;28;20373;-82
2023/06/14 12:07:35;;;;;;;;;;;;;;;34.37;21.71;101813.69;5080773;28;20018;-81
2023/06/14 12:10:00;;;;;;;;;;;;;;;34.24;21.27;101818.72;5083066;28;19999;-82
2023/06/14 12:12:26;;;;;;;;;;;;;;;34.14;21.78;101819.44;5071322;28;19920;-82
2023/06/14 12:14:52;;;;;;;;;;;;;;;34.10;21.92;101819.41;5084002;28;20404;-82
2023/06/14 12:17:18;;;;;;;;;;;;;;;34.10;21.57;101815.81;5079187;28;19976;-82
2023/06/14 12:19:45;;;;;;;;;;;;;;;34.08;21.63;101812.63;5084654;28;19920;-82
2023/06/14 12:22:11;;;;;;;;;;;;;;;34.04;21.79;101812.59;5085572;28;19924;-82
2023/06/14 12:24:36;;;;;;;;;;;;;;;33.98;21.53;101810.56;5084922;28;19924;-82
2023/06/14 12:27:03;;;;;;;;;;;;;;;33.91;21.87;101803.72;5090974;28;19923;-82
2023/06/14 12:29:28;;;;;;;;;;;;;;;33.82;21.90;101814.34;5087892;28;19924;-83
2023/06/14 12:31:56;;;;;;;;;;;;;;;33.66;21.66;101819.34;5088827;28;19924;-82